createdAt,value
2022-12-14T00:01:24.944Z,17.50
2022-12-14T00:03:52.946Z,17.50
2022-12-14T00:06:25.454Z,17.60
2022-12-14T00:08:53.935Z,17.50
2022-12-14T00:11:22.301Z,17.50
2022-12-14T00:14:00.534Z,17.50
2022-12-14T00:16:29.880Z,17.50
2022-12-14T00:18:58.343Z,17.50
2022-12-14T00:21:25.752Z,17.50
2022-12-14T00:23:53.668Z,17.50
2022-12-14T00:26:22.877Z,17.50
2022-12-14T00:28:51.060Z,17.50
2022-12-14T00:31:18.482Z,17.50
2022-12-14T00:33:45.313Z,17.50
2022-12-14T00:36:12.901Z,17.50
2022-12-14T00:38:40.420Z,17.50
2022-12-14T00:41:08.077Z,17.50
2022-12-14T00:43:35.511Z,17.50
2022-12-14T00:46:02.394Z,17.50
2022-12-14T00:48:29.423Z,17.40
2022-12-14T00:50:56.826Z,17.50
2022-12-14T00:53:24.665Z,17.50
2022-12-14T00:55:52.010Z,17.40
2022-12-14T00:58:22.236Z,17.40
2022-12-14T01:01:02.246Z,17.40
2022-12-14T01:03:29.495Z,17.40
2022-12-14T01:05:56.629Z,17.40
2022-12-14T01:08:23.459Z,17.40
2022-12-14T01:10:50.513Z,17.40
2022-12-14T01:13:17.321Z,17.40
2022-12-14T01:15:43.962Z,17.40
2022-12-14T01:18:10.648Z,17.40
2022-12-14T01:20:37.250Z,17.40
2022-12-14T01:23:03.920Z,17.40
2022-12-14T01:25:30.511Z,17.40
2022-12-14T01:27:57.115Z,17.40
2022-12-14T01:30:23.732Z,17.40
2022-12-14T01:32:50.334Z,17.40
2022-12-14T01:35:17.248Z,17.40
2022-12-14T01:37:44.058Z,17.40
2022-12-14T01:40:11.008Z,17.40
2022-12-14T01:42:37.875Z,17.40
2022-12-14T01:45:05.973Z,17.40
2022-12-14T01:47:44.017Z,17.40
2022-12-14T01:50:35.429Z,17.40
2022-12-14T01:53:11.866Z,17.40
2022-12-14T01:55:51.948Z,17.40
2022-12-14T01:58:24.157Z,17.40
2022-12-14T02:00:54.815Z,17.40
2022-12-14T02:03:30.214Z,17.30
2022-12-14T02:06:04.122Z,17.30
2022-12-14T02:08:31.894Z,17.40
2022-12-14T02:10:59.020Z,17.30
2022-12-14T02:13:28.124Z,17.40
2022-12-14T02:15:55.344Z,17.30
2022-12-14T02:18:27.725Z,17.30
2022-12-14T02:21:15.461Z,17.30
2022-12-14T02:23:53.956Z,17.30
2022-12-14T02:26:52.150Z,17.30
2022-12-14T02:29:33.784Z,17.30
2022-12-14T02:32:37.588Z,17.30
2022-12-14T02:35:12.781Z,17.30
2022-12-14T02:38:00.197Z,17.30
2022-12-14T02:40:33.326Z,17.30
2022-12-14T02:43:24.180Z,17.30
2022-12-14T02:46:00.251Z,17.30
2022-12-14T02:48:35.559Z,17.30
2022-12-14T02:51:19.765Z,17.30
2022-12-14T02:53:48.390Z,17.30
2022-12-14T02:56:22.410Z,17.30
2022-12-14T02:58:50.939Z,17.30
2022-12-14T03:01:24.977Z,17.30
2022-12-14T03:03:51.778Z,18.10
2022-12-14T03:06:26.883Z,17.30
2022-12-14T03:09:14.522Z,17.30
2022-12-14T03:11:59.554Z,17.30
2022-12-14T03:14:31.925Z,17.30
2022-12-14T03:17:07.241Z,17.30
2022-12-14T03:19:53.611Z,17.20
2022-12-14T03:22:32.548Z,17.20
2022-12-14T03:25:06.053Z,17.30
2022-12-14T03:27:43.796Z,17.30
2022-12-14T03:30:27.106Z,17.20
2022-12-14T03:33:04.749Z,17.30
2022-12-14T03:35:42.237Z,17.20
2022-12-14T03:38:19.783Z,17.20
2022-12-14T03:40:54.751Z,17.20
2022-12-14T03:43:36.641Z,17.30
2022-12-14T03:46:23.749Z,17.30
2022-12-14T03:48:54.556Z,17.30
2022-12-14T03:51:24.534Z,17.30
2022-12-14T03:54:26.806Z,17.20
2022-12-14T03:57:01.836Z,17.20
2022-12-14T03:59:39.204Z,17.20
2022-12-14T04:02:40.492Z,17.20
2022-12-14T04:05:29.292Z,17.20
2022-12-14T04:08:01.963Z,17.20
2022-12-14T04:10:57.939Z,17.20
2022-12-14T04:13:49.444Z,17.20
2022-12-14T04:16:39.319Z,17.20
2022-12-14T04:19:11.560Z,17.20
2022-12-14T04:21:44.039Z,17.20
2022-12-14T04:24:55.719Z,17.20
2022-12-14T04:27:34.256Z,17.20
2022-12-14T04:30:02.551Z,17.20
2022-12-14T04:32:38.217Z,17.10
2022-12-14T04:35:15.081Z,17.20
2022-12-14T04:37:44.600Z,17.10
2022-12-14T04:40:30.412Z,17.10
2022-12-14T04:43:04.332Z,17.10
2022-12-14T04:45:36.068Z,17.20
2022-12-14T04:48:31.666Z,17.20
2022-12-14T04:51:31.204Z,17.10
2022-12-14T04:54:14.511Z,17.20
2022-12-14T04:56:51.580Z,17.10
2022-12-14T04:59:18.326Z,17.10
2022-12-14T05:01:54.485Z,17.10
2022-12-14T05:04:39.446Z,17.10
2022-12-14T05:07:19.359Z,17.20
2022-12-14T05:10:00.223Z,17.10
2022-12-14T05:12:29.652Z,17.10
2022-12-14T05:15:09.147Z,17.20
2022-12-14T05:17:37.654Z,17.10
2022-12-14T05:20:05.249Z,17.10
2022-12-14T05:22:32.006Z,17.10
2022-12-14T05:24:58.607Z,17.10
2022-12-14T05:27:25.201Z,17.10
2022-12-14T05:29:51.781Z,17.20
2022-12-14T05:32:18.694Z,17.10
2022-12-14T05:34:45.393Z,17.20
2022-12-14T05:37:18.026Z,17.10
2022-12-14T05:39:45.132Z,17.10
2022-12-14T05:42:11.751Z,17.10
2022-12-14T05:44:38.431Z,17.10
2022-12-14T05:47:05.427Z,17.20
2022-12-14T05:49:32.062Z,17.10
2022-12-14T05:51:58.664Z,17.20
2022-12-14T05:54:25.310Z,17.20
2022-12-14T05:56:52.439Z,17.20
2022-12-14T05:59:19.157Z,17.20
2022-12-14T06:01:49.091Z,17.20
2022-12-14T06:04:18.145Z,17.20
2022-12-14T06:06:44.860Z,17.20
2022-12-14T06:09:15.527Z,17.20
2022-12-14T06:11:42.779Z,17.20
2022-12-14T06:14:10.739Z,17.20
2022-12-14T06:16:41.110Z,17.20
2022-12-14T06:19:08.538Z,17.20
2022-12-14T06:21:37.205Z,17.20
2022-12-14T06:24:04.866Z,17.20
2022-12-14T06:26:34.188Z,17.20
2022-12-14T06:29:01.488Z,17.20
2022-12-14T06:31:30.282Z,17.30
2022-12-14T06:34:01.994Z,17.20
2022-12-14T06:36:32.580Z,17.20
2022-12-14T06:39:02.869Z,17.30
2022-12-14T06:41:29.580Z,17.30
2022-12-14T06:43:57.109Z,17.30
2022-12-14T06:46:24.240Z,17.30
2022-12-14T06:48:55.399Z,17.30
2022-12-14T06:51:23.573Z,16.30
2022-12-14T06:53:52.016Z,17.30
2022-12-14T06:56:20.106Z,17.30
2022-12-14T06:58:47.232Z,17.30
2022-12-14T07:01:18.889Z,17.30
2022-12-14T07:03:50.613Z,17.30
2022-12-14T07:06:17.585Z,17.40
2022-12-14T07:08:44.176Z,17.40
2022-12-14T07:11:13.738Z,17.40
2022-12-14T07:13:41.323Z,17.40
2022-12-14T07:16:13.666Z,17.40
2022-12-14T07:18:40.430Z,17.40
2022-12-14T07:21:10.117Z,17.40
2022-12-14T07:23:38.820Z,17.40
2022-12-14T07:26:16.818Z,17.40
2022-12-14T07:28:44.883Z,17.40
2022-12-14T07:31:16.919Z,17.50
2022-12-14T07:33:44.662Z,17.50
2022-12-14T07:36:15.678Z,17.50
2022-12-14T07:38:43.545Z,17.50
2022-12-14T07:41:23.304Z,17.50
2022-12-14T07:43:51.586Z,17.50
2022-12-14T07:46:23.730Z,17.60
2022-12-14T07:48:52.905Z,17.50
2022-12-14T07:51:22.625Z,17.50
2022-12-14T07:53:50.590Z,17.50
2022-12-14T07:56:22.782Z,17.50
2022-12-14T07:58:51.122Z,17.60
2022-12-14T08:01:32.057Z,17.60
2022-12-14T08:04:03.218Z,17.60
2022-12-14T08:06:30.063Z,17.60
2022-12-14T08:08:57.532Z,17.60
2022-12-14T08:11:25.173Z,17.60
2022-12-14T08:13:59.814Z,17.60
2022-12-14T08:16:27.480Z,17.60
2022-12-14T08:18:58.094Z,17.60
2022-12-14T08:21:25.073Z,17.60
2022-12-14T08:23:54.443Z,19.70
2022-12-14T08:26:22.333Z,17.60
2022-12-14T08:28:48.961Z,17.70
2022-12-14T08:31:21.505Z,17.70
2022-12-14T08:33:48.639Z,17.70
2022-12-14T08:36:18.793Z,17.70
2022-12-14T08:38:45.504Z,17.70
2022-12-14T08:41:13.902Z,17.70
2022-12-14T08:43:41.349Z,17.70
2022-12-14T08:46:09.626Z,17.70
2022-12-14T08:48:36.772Z,17.70
2022-12-14T08:51:09.153Z,17.70
2022-12-14T08:53:37.491Z,17.70
2022-12-14T08:56:10.383Z,17.70
2022-12-14T08:58:37.947Z,17.70
2022-12-14T09:01:12.132Z,17.70
2022-12-14T09:03:39.385Z,17.70
2022-12-14T09:06:11.052Z,17.70
2022-12-14T09:08:38.292Z,17.70
2022-12-14T09:11:06.298Z,17.70
2022-12-14T09:13:33.830Z,17.70
2022-12-14T09:16:06.598Z,17.70
2022-12-14T09:18:36.770Z,17.80
2022-12-14T09:21:04.232Z,17.80
2022-12-14T09:23:33.339Z,17.80
2022-12-14T09:26:01.523Z,17.80
2022-12-14T09:28:28.754Z,17.80
2022-12-14T09:30:57.640Z,17.80
2022-12-14T09:33:25.574Z,17.80
2022-12-14T09:35:52.455Z,17.80
2022-12-14T09:38:20.468Z,17.80
2022-12-14T09:40:55.903Z,17.80
2022-12-14T09:43:43.319Z,17.80
2022-12-14T09:46:19.107Z,17.90
2022-12-14T09:48:45.972Z,17.80
2022-12-14T09:51:16.603Z,17.90
2022-12-14T09:53:45.142Z,17.80
2022-12-14T09:56:17.359Z,17.90
2022-12-14T09:58:59.581Z,17.80
2022-12-14T10:01:43.869Z,17.80
2022-12-14T10:04:51.555Z,17.80
2022-12-14T10:07:47.322Z,17.90
2022-12-14T10:10:24.415Z,17.80
2022-12-14T10:13:23.292Z,17.90
2022-12-14T10:16:02.188Z,17.90
2022-12-14T10:19:08.689Z,17.90
2022-12-14T10:21:47.278Z,17.90
2022-12-14T10:24:19.382Z,17.90
2022-12-14T10:26:50.819Z,17.90
2022-12-14T10:29:31.434Z,17.90
2022-12-14T10:32:05.310Z,17.90
2022-12-14T10:34:34.727Z,17.90
2022-12-14T10:37:23.397Z,17.90
2022-12-14T10:39:58.735Z,17.90
2022-12-14T10:42:49.521Z,17.90
2022-12-14T10:45:40.260Z,17.90
2022-12-14T10:48:41.010Z,17.90
2022-12-14T10:51:30.059Z,17.90
2022-12-14T10:54:18.507Z,17.90
2022-12-14T10:56:49.905Z,17.90
2022-12-14T10:59:16.860Z,17.90
2022-12-14T11:01:45.890Z,17.90
2022-12-14T11:04:32.069Z,17.90
2022-12-14T11:07:01.171Z,17.90
2022-12-14T11:09:30.068Z,17.90
2022-12-14T11:12:21.829Z,17.90
2022-12-14T11:14:54.680Z,18.00
2022-12-14T11:17:40.037Z,17.90
2022-12-14T11:20:17.734Z,17.90
2022-12-14T11:22:56.431Z,18.00
2022-12-14T11:25:34.872Z,18.00
2022-12-14T11:28:34.392Z,18.00
2022-12-14T11:31:13.146Z,18.00
2022-12-14T11:33:45.532Z,18.00
2022-12-14T11:36:41.656Z,18.00
2022-12-14T11:39:14.266Z,18.00
2022-12-14T11:41:42.260Z,18.00
2022-12-14T11:44:24.125Z,18.00
2022-12-14T11:46:58.526Z,18.00
2022-12-14T11:49:26.614Z,17.90
2022-12-14T11:52:05.136Z,18.00
2022-12-14T11:54:36.884Z,18.00
2022-12-14T11:57:26.589Z,18.00
2022-12-14T12:00:04.334Z,18.00
2022-12-14T12:02:40.637Z,18.00
2022-12-14T12:05:11.682Z,18.00
2022-12-14T12:07:50.182Z,18.00
2022-12-14T12:10:40.812Z,18.00
2022-12-14T12:13:28.427Z,18.00
2022-12-14T12:15:58.292Z,18.00
2022-12-14T12:18:40.342Z,18.00
2022-12-14T12:21:14.830Z,18.00
2022-12-14T12:24:02.603Z,18.00
2022-12-14T12:26:35.451Z,18.00
2022-12-14T12:29:17.181Z,18.00
2022-12-14T12:31:54.623Z,18.00
2022-12-14T12:34:28.872Z,18.00
2022-12-14T12:37:25.268Z,18.00
2022-12-14T12:39:53.746Z,18.00
2022-12-14T12:42:34.454Z,18.00
2022-12-14T12:45:14.765Z,18.00
2022-12-14T12:47:47.587Z,18.00
2022-12-14T12:50:25.512Z,18.00
2022-12-14T12:53:03.531Z,18.00
2022-12-14T12:55:37.784Z,18.00
2022-12-14T12:58:09.565Z,18.00
2022-12-14T13:00:37.908Z,18.00
2022-12-14T13:03:27.721Z,18.00
2022-12-14T13:05:57.369Z,18.00
2022-12-14T13:08:31.876Z,18.00
2022-12-14T13:11:25.659Z,18.00
2022-12-14T13:13:58.002Z,18.00
2022-12-14T13:16:33.876Z,18.00
2022-12-14T13:19:40.429Z,18.00
2022-12-14T13:22:03.339Z,18.00
2022-12-14T13:24:31.998Z,18.00
2022-12-14T13:27:35.745Z,18.00
2022-12-14T13:30:26.893Z,17.90
2022-12-14T13:33:02.921Z,17.90
2022-12-14T13:35:51.985Z,18.00
2022-12-14T13:38:39.650Z,17.90
2022-12-14T13:41:09.621Z,18.00
2022-12-14T13:44:04.319Z,17.90
2022-12-14T13:46:31.332Z,17.90
2022-12-14T13:49:02.836Z,18.00
2022-12-14T13:51:32.558Z,18.00
2022-12-14T13:54:02.793Z,18.00
2022-12-14T13:56:33.991Z,18.00
2022-12-14T13:59:04.801Z,18.00
2022-12-14T14:01:46.586Z,18.00
2022-12-14T14:04:14.115Z,18.00
2022-12-14T14:06:48.609Z,18.00
2022-12-14T14:09:28.106Z,18.00
2022-12-14T14:12:23.097Z,18.00
2022-12-14T14:15:14.707Z,18.00
2022-12-14T14:17:44.977Z,18.00
2022-12-14T14:20:36.481Z,18.00
2022-12-14T14:23:18.063Z,18.00
2022-12-14T14:26:10.231Z,18.00
2022-12-14T14:28:38.057Z,18.00
2022-12-14T14:31:05.283Z,17.90
2022-12-14T14:33:47.024Z,17.90
2022-12-14T14:36:36.791Z,17.90
2022-12-14T14:39:24.581Z,17.90
2022-12-14T14:41:54.287Z,17.90
2022-12-14T14:44:37.595Z,17.90
2022-12-14T14:47:14.355Z,17.90
2022-12-14T14:49:43.517Z,17.90
2022-12-14T14:52:41.550Z,17.90
2022-12-14T14:58:27.336Z,17.90
2022-12-14T15:00:58.016Z,17.90
2022-12-14T15:03:43.488Z,17.90
2022-12-14T15:06:26.388Z,17.90
2022-12-14T15:09:07.043Z,17.90
2022-12-14T15:11:44.956Z,17.90
2022-12-14T15:14:16.549Z,17.90
2022-12-14T15:16:45.525Z,17.90
2022-12-14T15:19:33.497Z,17.90
2022-12-14T15:22:04.738Z,17.90
2022-12-14T15:24:37.022Z,17.90
2022-12-14T15:27:32.044Z,17.90
2022-12-14T15:30:05.061Z,17.90
2022-12-14T15:32:32.518Z,17.90
2022-12-14T15:35:05.019Z,17.90
2022-12-14T15:37:44.783Z,17.90
2022-12-14T15:40:23.394Z,17.90
2022-12-14T15:42:55.776Z,17.90
2022-12-14T15:45:25.839Z,17.90
2022-12-14T15:47:53.000Z,17.90
2022-12-14T15:50:25.413Z,17.90
2022-12-14T15:52:55.736Z,17.90
2022-12-14T15:55:22.294Z,17.90
2022-12-14T15:57:49.108Z,17.90
2022-12-14T16:00:15.991Z,17.90
2022-12-14T16:02:44.192Z,17.90
2022-12-14T16:05:17.487Z,17.90
2022-12-14T16:07:47.590Z,17.90
2022-12-14T16:10:23.876Z,17.90
2022-12-14T16:12:55.103Z,17.90
2022-12-14T16:15:27.429Z,17.90
2022-12-14T16:18:02.262Z,17.90
2022-12-14T16:20:32.705Z,17.90
2022-12-14T16:23:01.238Z,17.90
2022-12-14T16:25:29.191Z,17.90
2022-12-14T16:27:55.940Z,17.90
2022-12-14T16:30:29.796Z,17.90
2022-12-14T16:33:17.355Z,17.90
2022-12-14T16:35:47.769Z,17.90
2022-12-14T16:38:17.008Z,17.90
2022-12-14T16:40:59.192Z,17.90
2022-12-14T16:43:36.706Z,17.90
2022-12-14T16:46:03.331Z,17.90
2022-12-14T16:48:31.520Z,17.90
2022-12-14T16:51:44.391Z,17.90
2022-12-14T16:54:24.273Z,17.90
2022-12-14T16:56:56.043Z,17.90
2022-12-14T16:59:37.482Z,17.90
2022-12-14T17:02:05.040Z,17.90
2022-12-14T17:04:36.483Z,17.90
2022-12-14T17:07:04.062Z,17.90
2022-12-14T17:09:33.488Z,17.90
2022-12-14T17:12:02.359Z,17.90
2022-12-14T17:14:29.130Z,17.90
2022-12-14T17:17:01.405Z,17.90
2022-12-14T17:19:32.481Z,17.90
2022-12-14T17:21:59.852Z,17.90
2022-12-14T17:24:27.202Z,17.90
2022-12-14T17:26:53.827Z,17.90
2022-12-14T17:29:23.975Z,17.90
2022-12-14T17:31:52.753Z,17.90
2022-12-14T17:34:19.392Z,17.90
2022-12-14T17:36:46.415Z,17.90
2022-12-14T17:39:13.327Z,17.90
2022-12-14T17:41:42.556Z,17.90
2022-12-14T17:44:17.550Z,17.90
2022-12-14T17:46:46.300Z,18.00
2022-12-14T17:49:14.384Z,18.00
2022-12-14T17:51:45.250Z,18.00
2022-12-14T17:54:18.120Z,17.90
2022-12-14T17:56:46.215Z,17.80
2022-12-14T17:59:14.027Z,17.90
2022-12-14T18:01:41.609Z,17.90
2022-12-14T18:04:08.778Z,17.90
2022-12-14T18:06:35.583Z,17.80
2022-12-14T18:09:02.435Z,17.90
2022-12-14T18:11:29.449Z,17.90
2022-12-14T18:13:56.030Z,17.90
2022-12-14T18:16:24.320Z,18.00
2022-12-14T18:18:54.047Z,17.90
2022-12-14T18:21:23.170Z,18.00
2022-12-14T18:23:50.431Z,17.90
2022-12-14T18:26:20.656Z,18.00
2022-12-14T18:28:49.293Z,18.00
2022-12-14T18:31:23.274Z,18.00
2022-12-14T18:33:50.552Z,18.00
2022-12-14T18:36:19.733Z,17.90
2022-12-14T18:38:49.516Z,18.00
2022-12-14T18:41:19.301Z,18.00
2022-12-14T18:43:46.438Z,18.00
2022-12-14T18:46:13.698Z,18.00
2022-12-14T18:48:41.622Z,18.00
2022-12-14T18:51:13.499Z,18.00
2022-12-14T18:53:42.135Z,18.00
2022-12-14T18:56:11.626Z,18.00
2022-12-14T18:58:41.775Z,18.00
2022-12-14T19:01:14.441Z,18.00
2022-12-14T19:03:41.386Z,18.00
2022-12-14T19:09:10.859Z,18.00
2022-12-14T19:11:41.471Z,18.00
2022-12-14T19:14:08.205Z,18.00
2022-12-14T19:16:34.976Z,17.90
2022-12-14T19:19:01.761Z,18.00
2022-12-14T19:21:29.570Z,18.00
2022-12-14T19:23:56.314Z,18.90
2022-12-14T19:26:23.239Z,17.90
2022-12-14T19:28:49.834Z,17.90
2022-12-14T19:31:16.485Z,18.00
2022-12-14T19:33:43.128Z,17.90
2022-12-14T19:36:10.229Z,17.90
2022-12-14T19:38:37.544Z,17.90
2022-12-14T19:41:07.027Z,18.00
2022-12-14T19:43:35.059Z,17.90
2022-12-14T19:46:06.512Z,17.90
2022-12-14T19:48:33.485Z,17.90
2022-12-14T19:51:08.553Z,17.90
2022-12-14T19:53:35.551Z,17.90
2022-12-14T19:56:03.571Z,17.90
2022-12-14T19:58:30.312Z,17.90
2022-12-14T20:00:57.336Z,17.90
2022-12-14T20:03:24.381Z,17.90
2022-12-14T20:05:53.721Z,17.90
2022-12-14T20:08:20.979Z,17.90
2022-12-14T20:10:48.342Z,17.80
2022-12-14T20:13:15.359Z,17.90
2022-12-14T20:15:51.708Z,17.90
2022-12-14T20:18:19.379Z,17.90
2022-12-14T20:20:49.379Z,17.90
2022-12-14T20:23:17.583Z,17.90
2022-12-14T20:25:44.597Z,17.80
2022-12-14T20:28:11.528Z,17.90
2022-12-14T20:30:46.546Z,17.90
2022-12-14T20:33:13.807Z,17.90
2022-12-14T20:35:40.400Z,17.90
2022-12-14T20:38:07.068Z,17.80
2022-12-14T20:40:38.491Z,17.90
2022-12-14T20:43:06.509Z,17.90
2022-12-14T20:45:41.394Z,17.90
2022-12-14T20:48:08.737Z,17.80
2022-12-14T20:50:42.125Z,17.80
2022-12-14T20:53:08.947Z,17.80
2022-12-14T20:55:35.700Z,17.80
2022-12-14T20:58:02.377Z,17.80
2022-12-14T21:00:29.100Z,17.80
2022-12-14T21:02:55.824Z,17.80
2022-12-14T21:05:22.550Z,17.80
2022-12-14T21:07:49.269Z,17.80
2022-12-14T21:10:15.968Z,17.80
2022-12-14T21:12:42.563Z,17.80
2022-12-14T21:15:09.244Z,17.70
2022-12-14T21:17:35.958Z,17.80
2022-12-14T21:20:03.460Z,17.80
2022-12-14T21:22:30.609Z,17.80
2022-12-14T21:25:05.962Z,17.80
2022-12-14T21:27:34.776Z,17.80
2022-12-14T21:30:01.506Z,17.80
2022-12-14T21:32:28.324Z,17.80
2022-12-14T21:34:54.964Z,17.70
2022-12-14T21:37:21.925Z,17.70
2022-12-14T21:39:54.836Z,17.70
2022-12-14T21:42:25.757Z,17.70
2022-12-14T21:44:53.493Z,17.70
2022-12-14T21:47:26.644Z,17.70
2022-12-14T21:49:54.045Z,17.70
2022-12-14T21:52:24.217Z,17.70
2022-12-14T21:54:50.820Z,17.70
2022-12-14T21:57:42.028Z,17.70
2022-12-14T22:00:10.276Z,17.70
2022-12-14T22:02:37.120Z,17.70
2022-12-14T22:05:04.486Z,17.70
2022-12-14T22:07:33.225Z,17.70
2022-12-14T22:10:00.197Z,17.70
2022-12-14T22:12:26.875Z,17.70
2022-12-14T22:14:53.668Z,17.70
2022-12-14T22:17:20.440Z,17.70
2022-12-14T22:19:50.846Z,17.70
2022-12-14T22:22:17.609Z,17.70
2022-12-14T22:24:45.022Z,17.60
2022-12-14T22:27:12.773Z,17.70
2022-12-14T22:29:39.805Z,17.60
2022-12-14T22:32:07.284Z,17.60
2022-12-14T22:34:34.274Z,17.60
2022-12-14T22:37:01.004Z,17.60
2022-12-14T22:39:27.764Z,17.60
2022-12-14T22:41:54.419Z,17.60
2022-12-14T22:44:21.002Z,17.60
2022-12-14T22:46:47.730Z,17.60
2022-12-14T22:49:19.431Z,17.60
2022-12-14T22:51:46.560Z,17.60
2022-12-14T22:54:23.443Z,17.60
2022-12-14T22:56:55.809Z,17.60
2022-12-14T22:59:36.685Z,17.60
2022-12-14T23:02:03.770Z,17.60
2022-12-14T23:04:30.832Z,17.60
2022-12-14T23:06:57.453Z,17.50
2022-12-14T23:09:42.770Z,17.60
2022-12-14T23:12:28.146Z,17.60
2022-12-14T23:15:13.548Z,17.60
2022-12-14T23:17:58.851Z,17.60
2022-12-14T23:20:44.298Z,17.50
2022-12-14T23:23:30.053Z,17.50
2022-12-14T23:26:20.534Z,17.50
2022-12-14T23:29:05.888Z,17.50
2022-12-14T23:31:51.403Z,17.60
2022-12-14T23:34:36.747Z,17.50
2022-12-14T23:37:22.074Z,17.50
2022-12-14T23:40:07.441Z,17.50
2022-12-14T23:42:52.835Z,17.50
2022-12-14T23:45:38.220Z,17.50
2022-12-14T23:48:23.715Z,17.50
2022-12-14T23:51:09.063Z,17.50
2022-12-14T23:53:54.380Z,17.50
2022-12-14T23:56:39.691Z,17.50
2022-12-14T23:59:31.515Z,17.50
